Hartshill, United Kingdom
Current Conditions -  °F | °C
As of 11:20 PM on Saturday 20 Dec 2014 (Local Time) from EGBB Reporting Station
Broken Clouds Broken Clouds  
Wind Chill: 37°   Ceiling: 3600
Heat Index: 41°   Visibility: 6mi
Dew Point: 39°   Wind: 6mph
Humidity: 93%   Direction: 170°S
Pressure: 30.39"   Gusts: NA
Location:  52.54°N, 1.52°W
Report Text: EGBB 202320Z 17005KT 9999 BKN036 05/04 Q1029
Loading
Personal Weather Stations






























Interactive Weather Map New forecast layout! Learn more

10-Day Weather Forecast

Advertisements
Track Severe Weather on mobile